• Join FlightAware (Why Join?)
  • Login
  • US Flag 
01:07AM EDT


 

Airport Tracker/Info


-or-


 

Live Flight TrackerFlight Track Log ✈ EJA929 ✈ 16-Oct-2013 ✈ KHOU - KSGR

Flight Track Log - Related Links

Times and Time Zones

All times are in EDT time to prevent confusion due to time zone crossing. See the EJA929 flight status page for this flight to view local times or setup timezone preferences in your user account.

Time Position Orientation Groundspeed Altitude Reporting Facility
EDT Latitude Longitude Course Direction KTS MPH feet Rate Location/Type
11:47AM 29.6703 -95.2583 33° Northeast 200 230 1,800  Level Houston Center
11:48AM 29.7039 -95.2878 323° Northwest 231 266 2,900 1,140 Climbing Houston Center
11:48AM 29.7108 -95.3111 289° West 233 268 3,000  Climbing Houston Center
11:49AM 29.7183 -95.3681 279° West 220 253 2,900  Descending Houston Center
11:49AM 29.7189 -95.3753 275° West 208 239 3,000  Climbing Houston Center
11:50AM 29.7019 -95.4272 249° West 216 249 2,900  Descending Houston Center
11:50AM 29.6969 -95.4331 225° Southwest 204 235 3,000 60 Climbing Houston Center
11:51AM 29.6639 -95.4853 234° Southwest 206 237 3,000 -60 Level Houston Center
11:52AM 29.6356 -95.5333 236° Southwest 207 238 2,900  Descending Houston Center
11:52AM 29.6294 -95.5447 238° Southwest 207 238 3,000  Climbing Houston Center
11:53AM 29.6008 -95.5850 231° Southwest 207 238 2,900 -240 Descending Houston Center
11:53AM 29.5894 -95.5903 202° Southwest 208 239 2,800 -1,020 Descending Houston Center
11:54AM 29.5353 -95.5978 187° South 206 237 1,900 -720 Descending Houston Center
11:54AM 29.5333 -95.5967 154° Southeast 196 226 2,100  Climbing Houston Center
11:55AM 29.4797 -95.5908 175° South 200 230 1,900 -120 Descending Houston Center
11:55AM 29.4675 -95.5900 177° South 210 242 2,000  Climbing Houston Center
11:56AM 29.4658 -95.6342 268° West 209 241 1,900  Descending Houston Center
11:56AM 29.4742 -95.6397 330° Northwest 198 228 2,000 -120 Climbing Houston Center
11:57AM 29.5297 -95.6500 351° North 198 228 1,800 -540 Descending Houston Center
11:58AM 29.5675 -95.6525 357° North 187 215 1,000 -720 Descending Houston Center
11:59AM 29.6006 -95.6558 355° North 147 169 400 -420 Descending Houston Center
12:00PM 29.6342 -95.6583 356° North 142 163 200 -240 Descending Houston Center